Time,TemperatureF,DewpointF,PressureIn,WindDirection,WindDirectionDegrees,WindSpeedMPH,WindSpeedGustMPH,Humidity,HourlyPrecipIn,Conditions,Clouds,dailyrainin,SoftwareType,DateUTC
2013-05-13 00:11:00,62.5,31.0,29.97,ESE,107,2.0,2.0,30,0.00,,,0.00,weatherlink.com 1.10,2013-05-13 06:11:00,
2013-05-13 00:26:00,62.7,33.0,29.97,SE,128,0.0,0.0,33,0.00,,,0.00,weatherlink.com 1.10,2013-05-13 06:26:00,
2013-05-13 00:41:00,63.4,32.0,29.97,SE,129,0.0,0.0,31,0.00,,,0.00,weatherlink.com 1.10,2013-05-13 06:41:00,
2013-05-13 00:56:00,60.5,31.0,29.97,SE,127,0.0,0.0,33,0.00,,,0.00,weatherlink.com 1.10,2013-05-13 06:56:00,
2013-05-13 01:11:00,59.4,31.0,29.98,SE,127,0.0,0.0,34,0.00,,,0.00,weatherlink.com 1.10,2013-05-13 07:11:00,
2013-05-13 01:26:00,59.4,32.0,29.98,SE,127,0.0,0.0,36,0.00,,,0.00,weatherlink.com 1.10,2013-05-13 07:26:00,
2013-05-13 01:42:00,59.0,35.0,29.97,SE,127,0.0,0.0,40,0.00,,,0.00,weatherlink.com 1.10,2013-05-13 07:42:00,
2013-05-13 01:57:00,58.7,34.0,29.97,SE,129,0.0,0.0,39,0.00,,,0.00,weatherlink.com 1.10,2013-05-13 07:57:00,
2013-05-13 02:12:00,58.9,34.0,29.97,SE,127,0.0,0.0,39,0.00,,,0.00,weatherlink.com 1.10,2013-05-13 08:12:00,
2013-05-13 02:27:00,57.0,31.0,29.98,SE,127,0.0,0.0,38,0.00,,,0.00,weatherlink.com 1.10,2013-05-13 08:27:00,
2013-05-13 02:42:00,56.5,32.0,29.98,SE,127,0.0,0.0,39,0.00,,,0.00,weatherlink.com 1.10,2013-05-13 08:42:00,
2013-05-13 02:57:00,55.9,32.0,29.98,SE,127,0.0,0.0,41,0.00,,,0.00,weatherlink.com 1.10,2013-05-13 08:57:00,
2013-05-13 03:12:00,57.3,33.0,29.98,SE,127,0.0,0.0,40,0.00,,,0.00,weatherlink.com 1.10,2013-05-13 09:12:00,
2013-05-13 03:27:00,59.0,34.0,29.98,SE,127,0.0,1.0,39,0.00,,,0.00,weatherlink.com 1.10,2013-05-13 09:27:00,
2013-05-13 03:42:00,60.2,32.0,29.98,SE,127,0.0,0.0,35,0.00,,,0.00,weatherlink.com 1.10,2013-05-13 09:42:00,
2013-05-13 03:57:00,58.6,32.0,29.98,East,97,0.0,1.0,37,0.00,,,0.00,weatherlink.com 1.10,2013-05-13 09:57:00,
2013-05-13 04:12:00,58.0,30.0,29.98,ESE,123,0.0,1.0,35,0.00,,,0.00,weatherlink.com 1.10,2013-05-13 10:12:00,
2013-05-13 04:27:00,54.9,31.0,29.98,ESE,123,0.0,0.0,40,0.00,,,0.00,weatherlink.com 1.10,2013-05-13 10:27:00,
2013-05-13 04:42:00,55.1,32.0,29.98,ESE,122,0.0,0.0,42,0.00,,,0.00,weatherlink.com 1.10,2013-05-13 10:42:00,
2013-05-13 04:57:00,55.0,31.0,29.98,ESE,122,0.0,0.0,40,0.00,,,0.00,weatherlink.com 1.10,2013-05-13 10:57:00,
2013-05-13 05:12:00,53.9,31.0,29.99,ESE,123,0.0,1.0,42,0.00,,,0.00,weatherlink.com 1.10,2013-05-13 11:12:00,
2013-05-13 05:27:00,55.5,32.0,29.98,ESE,122,0.0,0.0,41,0.00,,,0.00,weatherlink.com 1.10,2013-05-13 11:27:00,
2013-05-13 05:42:00,52.9,33.0,29.98,ESE,121,0.0,0.0,47,0.00,,,0.00,weatherlink.com 1.10,2013-05-13 11:42:00,
2013-05-13 05:57:00,51.7,31.0,29.99,ESE,121,1.0,1.0,46,0.00,,,0.00,weatherlink.com 1.10,2013-05-13 11:57:00,
2013-05-13 06:12:00,52.2,33.0,30.00,North,354,0.0,3.0,49,0.00,,,0.00,weatherlink.com 1.10,2013-05-13 12:12:00,
2013-05-13 06:27:00,51.5,33.0,30.01,North,355,0.0,1.0,49,0.00,,,0.00,weatherlink.com 1.10,2013-05-13 12:27:00,
2013-05-13 06:42:00,51.2,33.0,30.02,North,355,0.0,1.0,51,0.00,,,0.00,weatherlink.com 1.10,2013-05-13 12:42:00,
2013-05-13 06:57:00,52.2,33.0,30.02,North,355,0.0,1.0,48,0.00,,,0.00,weatherlink.com 1.10,2013-05-13 12:57:00,
2013-05-13 07:12:00,53.7,33.0,30.03,North,355,0.0,1.0,46,0.00,,,0.00,weatherlink.com 1.10,2013-05-13 13:12:00,
2013-05-13 07:27:00,55.2,33.0,30.03,North,355,0.0,1.0,44,0.00,,,0.00,weatherlink.com 1.10,2013-05-13 13:27:00,
2013-05-13 07:42:00,57.3,34.0,30.03,North,355,0.0,1.0,42,0.00,,,0.00,weatherlink.com 1.10,2013-05-13 13:42:00,
2013-05-13 07:57:00,60.1,34.0,30.03,North,358,0.0,1.0,37,0.00,,,0.00,weatherlink.com 1.10,2013-05-13 13:57:00,
2013-05-13 08:12:00,61.3,34.0,30.03,North,359,0.0,3.0,36,0.00,,,0.00,weatherlink.com 1.10,2013-05-13 14:12:00,
2013-05-13 08:27:00,62.5,34.0,30.04,NNW,330,1.0,2.0,35,0.00,,,0.00,weatherlink.com 1.10,2013-05-13 14:27:00,
2013-05-13 08:42:00,65.9,34.0,30.04,North,349,1.0,1.0,30,0.00,,,0.00,weatherlink.com 1.10,2013-05-13 14:42:00,
2013-05-13 08:57:00,67.5,33.0,30.04,SW,218,1.0,3.0,28,0.00,,,0.00,weatherlink.com 1.10,2013-05-13 14:57:00,
2013-05-13 09:12:00,69.8,32.0,30.03,WSW,243,1.0,4.0,25,0.00,,,0.00,weatherlink.com 1.10,2013-05-13 15:12:00,
2013-05-13 09:27:00,69.5,31.0,30.02,WSW,256,1.0,5.0,24,0.00,,,0.00,weatherlink.com 1.10,2013-05-13 15:27:00,
2013-05-13 09:42:00,69.6,31.0,30.02,SSE,161,3.0,9.0,24,0.00,,,0.00,weatherlink.com 1.10,2013-05-13 15:42:00,
2013-05-13 09:57:00,69.6,31.0,30.02,SW,224,3.0,6.0,24,0.00,,,0.00,weatherlink.com 1.10,2013-05-13 15:57:00,
2013-05-13 10:13:00,70.7,33.0,30.02,SW,224,2.0,8.0,25,0.00,,,0.00,weatherlink.com 1.10,2013-05-13 16:13:00,
2013-05-13 10:28:00,71.6,34.0,30.01,WNW,290,2.0,5.0,25,0.00,,,0.00,weatherlink.com 1.10,2013-05-13 16:28:00,
2013-05-13 10:43:00,73.5,32.0,30.01,SE,142,3.0,5.0,22,0.00,,,0.00,weatherlink.com 1.10,2013-05-13 16:43:00,
2013-05-13 10:58:00,73.8,34.0,30.00,WSW,250,2.0,6.0,23,0.00,,,0.00,weatherlink.com 1.10,2013-05-13 16:58:00,
2013-05-13 11:28:00,75.7,33.0,29.99,WSW,238,5.0,7.0,21,0.00,,,0.00,weatherlink.com 1.10,2013-05-13 17:28:00,
2013-05-13 11:43:00,76.8,34.0,29.98,SW,214,2.0,5.0,21,0.00,,,0.00,weatherlink.com 1.10,2013-05-13 17:43:00,
2013-05-13 11:58:00,78.4,33.0,29.97,SW,217,2.0,6.0,19,0.00,,,0.00,weatherlink.com 1.10,2013-05-13 17:58:00,
2013-05-13 12:28:00,79.4,32.0,29.95,SW,233,3.0,5.0,18,0.00,,,0.00,weatherlink.com 1.10,2013-05-13 18:28:00,
2013-05-13 12:43:00,80.1,33.0,29.95,SSE,149,1.0,6.0,18,0.00,,,0.00,weatherlink.com 1.10,2013-05-13 18:43:00,
2013-05-13 12:58:00,80.8,33.0,29.94,WSW,238,3.0,6.0,18,0.00,,,0.00,weatherlink.com 1.10,2013-05-13 18:58:00,
2013-05-13 13:13:00,82.5,32.0,29.93,SW,228,1.0,4.0,16,0.00,,,0.00,weatherlink.com 1.10,2013-05-13 19:13:00,
2013-05-13 13:28:00,82.9,31.0,29.92,NW,313,2.0,8.0,15,0.00,,,0.00,weatherlink.com 1.10,2013-05-13 19:28:00,
2013-05-13 13:43:00,84.0,30.0,29.91,WSW,246,1.0,6.0,14,0.00,,,0.00,weatherlink.com 1.10,2013-05-13 19:43:00,
2013-05-13 13:58:00,84.6,30.0,29.91,North,352,0.0,4.0,14,0.00,,,0.00,weatherlink.com 1.10,2013-05-13 19:58:00,
2013-05-13 14:13:00,84.1,30.0,29.91,ESE,115,3.0,8.0,14,0.00,,,0.00,weatherlink.com 1.10,2013-05-13 20:13:00,
2013-05-13 14:28:00,84.3,30.0,29.90,SE,129,1.0,8.0,14,0.00,,,0.00,weatherlink.com 1.10,2013-05-13 20:28:00,
2013-05-13 14:43:00,85.3,29.0,29.90,SW,224,1.0,6.0,13,0.00,,,0.00,weatherlink.com 1.10,2013-05-13 20:43:00,
2013-05-13 14:58:00,84.8,31.0,29.89,WSW,248,1.0,7.0,14,0.00,,,0.00,weatherlink.com 1.10,2013-05-13 20:58:00,
2013-05-13 15:13:00,83.1,29.0,29.89,SSE,163,1.0,3.0,14,0.00,,,0.00,weatherlink.com 1.10,2013-05-13 21:13:00,
2013-05-13 15:28:00,83.0,29.0,29.88,WSW,249,2.0,9.0,14,0.00,,,0.00,weatherlink.com 1.10,2013-05-13 21:28:00,
2013-05-13 15:43:00,85.7,29.0,29.87,North,11,1.0,5.0,13,0.00,,,0.00,weatherlink.com 1.10,2013-05-13 21:43:00,
2013-05-13 15:58:00,86.3,28.0,29.86,SW,228,6.0,9.0,12,0.00,,,0.00,weatherlink.com 1.10,2013-05-13 21:58:00,
2013-05-13 16:14:00,86.6,32.0,29.85,SSW,206,0.0,5.0,14,0.00,,,0.00,weatherlink.com 1.10,2013-05-13 22:14:00,
2013-05-13 16:29:00,86.6,26.0,29.84,NW,305,2.0,4.0,11,0.00,,,0.00,weatherlink.com 1.10,2013-05-13 22:29:00,
2013-05-13 16:44:00,86.0,28.0,29.84,West,273,3.0,7.0,12,0.00,,,0.00,weatherlink.com 1.10,2013-05-13 22:44:00,
2013-05-13 16:59:00,86.3,28.0,29.83,SW,225,1.0,4.0,12,0.00,,,0.00,weatherlink.com 1.10,2013-05-13 22:59:00,
2013-05-13 17:14:00,86.3,28.0,29.82,SSW,205,4.0,7.0,12,0.00,,,0.00,weatherlink.com 1.10,2013-05-13 23:14:00,
2013-05-13 17:29:00,85.3,27.0,29.82,SSW,212,2.0,7.0,12,0.00,,,0.00,weatherlink.com 1.10,2013-05-13 23:29:00,
2013-05-13 17:44:00,84.3,28.0,29.81,SE,129,6.0,7.0,13,0.00,,,0.00,weatherlink.com 1.10,2013-05-13 23:44:00,
2013-05-13 17:59:00,85.0,27.0,29.81,WSW,240,2.0,6.0,12,0.00,,,0.00,weatherlink.com 1.10,2013-05-13 23:59:00,
2013-05-13 18:14:00,84.7,27.0,29.80,SW,232,1.0,3.0,12,0.00,,,0.00,weatherlink.com 1.10,2013-05-14 00:14:00,
2013-05-13 18:29:00,83.4,26.0,29.80,SSE,167,0.0,6.0,12,0.00,,,0.00,weatherlink.com 1.10,2013-05-14 00:29:00,
2013-05-13 18:44:00,82.6,27.0,29.80,South,170,3.0,6.0,13,0.00,,,0.00,weatherlink.com 1.10,2013-05-14 00:44:00,
2013-05-13 18:59:00,81.3,26.0,29.80,SW,217,1.0,5.0,13,0.00,,,0.00,weatherlink.com 1.10,2013-05-14 00:59:00,
2013-05-13 19:14:00,80.6,27.0,29.80,SSE,150,1.0,3.0,14,0.00,,,0.00,weatherlink.com 1.10,2013-05-14 01:14:00,
2013-05-13 19:29:00,80.1,27.0,29.80,SSE,155,3.0,6.0,14,0.00,,,0.00,weatherlink.com 1.10,2013-05-14 01:29:00,
2013-05-13 19:44:00,79.3,26.0,29.80,SE,139,2.0,2.0,14,0.00,,,0.00,weatherlink.com 1.10,2013-05-14 01:44:00,
2013-05-13 19:59:00,77.9,27.0,29.80,SSW,212,1.0,2.0,15,0.00,,,0.00,weatherlink.com 1.10,2013-05-14 01:59:00,
2013-05-13 20:14:00,76.8,27.0,29.81,ESE,118,0.0,4.0,16,0.00,,,0.00,weatherlink.com 1.10,2013-05-14 02:14:00,
2013-05-13 20:29:00,75.9,27.0,29.81,South,191,0.0,3.0,16,0.00,,,0.00,weatherlink.com 1.10,2013-05-14 02:29:00,
2013-05-13 20:44:00,75.1,26.0,29.81,SE,125,0.0,4.0,16,0.00,,,0.00,weatherlink.com 1.10,2013-05-14 02:44:00,
2013-05-13 20:59:00,74.8,26.0,29.82,SSE,155,0.0,4.0,16,0.00,,,0.00,weatherlink.com 1.10,2013-05-14 02:59:00,
2013-05-13 21:14:00,74.2,29.0,29.82,SE,142,1.0,1.0,19,0.00,,,0.00,weatherlink.com 1.10,2013-05-14 03:14:00,
2013-05-13 21:29:00,73.3,27.0,29.82,SE,134,0.0,1.0,18,0.00,,,0.00,weatherlink.com 1.10,2013-05-14 03:29:00,
2013-05-13 21:44:00,72.9,27.0,29.82,SE,139,3.0,4.0,18,0.00,,,0.00,weatherlink.com 1.10,2013-05-14 03:44:00,
2013-05-13 21:59:00,72.2,26.0,29.82,SE,135,2.0,6.0,18,0.00,,,0.00,weatherlink.com 1.10,2013-05-14 03:59:00,
2013-05-13 22:14:00,71.1,28.0,29.83,SW,224,0.0,6.0,20,0.00,,,0.00,weatherlink.com 1.10,2013-05-14 04:14:00,
2013-05-13 22:29:00,69.0,28.0,29.83,SW,224,0.0,1.0,22,0.00,,,0.00,weatherlink.com 1.10,2013-05-14 04:29:00,
2013-05-13 22:44:00,68.0,28.0,29.83,ESE,111,3.0,3.0,22,0.00,,,0.00,weatherlink.com 1.10,2013-05-14 04:44:00,
2013-05-13 22:59:00,69.1,26.0,29.82,SE,129,2.0,4.0,20,0.00,,,0.00,weatherlink.com 1.10,2013-05-14 04:59:00,
2013-05-13 23:14:00,69.0,27.0,29.82,SSE,155,0.0,2.0,21,0.00,,,0.00,weatherlink.com 1.10,2013-05-14 05:14:00,
2013-05-13 23:29:00,67.5,27.0,29.82,ESE,110,0.0,1.0,22,0.00,,,0.00,weatherlink.com 1.10,2013-05-14 05:29:00,
2013-05-13 23:44:00,65.6,29.0,29.83,ESE,110,0.0,0.0,25,0.00,,,0.00,weatherlink.com 1.10,2013-05-14 05:44:00,
2013-05-13 23:59:00,65.5,33.0,29.82,ESE,110,0.0,0.0,30,0.00,,,0.00,weatherlink.com 1.10,2013-05-14 05:59:00,